createdAt,value
2018-10-21T00:00:26.677Z,77.45
2018-10-21T00:03:01.471Z,76.71
2018-10-21T00:08:06.043Z,77.65
2018-10-21T00:10:34.975Z,76.90
2018-10-21T00:13:03.232Z,78.66
2018-10-21T00:15:32.767Z,80.08
2018-10-21T00:18:03.938Z,80.17
2018-10-21T00:20:33.387Z,80.20
2018-10-21T00:23:05.285Z,80.64
2018-10-21T00:25:42.473Z,80.53
2018-10-21T00:28:21.748Z,81.13
2018-10-21T00:30:50.802Z,80.90
2018-10-21T00:33:19.868Z,81.33
2018-10-21T00:35:49.901Z,81.47
2018-10-21T00:38:18.350Z,81.83
2018-10-21T00:40:46.945Z,82.20
2018-10-21T00:43:15.043Z,82.66
2018-10-21T00:48:20.098Z,83.28
2018-10-21T00:50:48.943Z,83.91
2018-10-21T00:53:17.166Z,84.18
2018-10-21T00:55:45.830Z,84.12
2018-10-21T00:58:13.913Z,84.84
2018-10-21T01:00:43.955Z,84.85
2018-10-21T01:03:12.288Z,85.01
2018-10-21T01:05:41.045Z,85.72
2018-10-21T01:08:09.349Z,85.87
2018-10-21T01:10:41.094Z,86.18
2018-10-21T01:13:10.140Z,86.11
2018-10-21T01:15:40.259Z,86.56
2018-10-21T01:18:09.509Z,86.75
2018-10-21T01:20:43.836Z,87.29
2018-10-21T01:23:13.164Z,87.74
2018-10-21T01:25:43.517Z,87.37
2018-10-21T01:28:11.890Z,87.87
2018-10-21T01:30:41.577Z,88.12
2018-10-21T01:33:10.568Z,88.69
2018-10-21T01:35:39.262Z,88.33
2018-10-21T01:38:07.554Z,88.26
2018-10-21T01:40:37.937Z,88.59
2018-10-21T01:43:07.132Z,88.14
2018-10-21T01:45:36.095Z,87.72
2018-10-21T01:48:05.979Z,88.59
2018-10-21T01:50:34.146Z,89.22
2018-10-21T01:53:04.990Z,90.23
2018-10-21T01:55:34.084Z,90.44
2018-10-21T01:58:04.229Z,91.40
2018-10-21T02:00:36.924Z,91.75
2018-10-21T02:03:07.655Z,90.85
2018-10-21T02:06:08.225Z,89.02
2018-10-21T02:08:52.268Z,88.47
2018-10-21T02:11:20.460Z,89.06
2018-10-21T02:13:55.443Z,90.66
2018-10-21T02:19:22.354Z,91.79
2018-10-21T02:21:50.969Z,90.40
2018-10-21T02:24:19.075Z,90.10
2018-10-21T02:26:47.063Z,90.56
2018-10-21T02:29:15.484Z,90.28
2018-10-21T02:31:43.968Z,90.88
2018-10-21T02:34:11.957Z,92.05
2018-10-21T02:36:40.168Z,91.31
2018-10-21T02:39:09.296Z,91.52
2018-10-21T02:41:48.127Z,92.32
2018-10-21T02:44:17.209Z,94.12
2018-10-21T02:46:45.690Z,95.51
2018-10-21T02:49:14.420Z,96.62
2018-10-21T02:51:42.350Z,97.75
2018-10-21T02:54:10.822Z,98.08
2018-10-21T02:56:39.044Z,98.72
2018-10-21T02:59:07.362Z,99.30
2018-10-21T03:01:35.367Z,99.55
2018-10-21T03:04:03.384Z,100.00
2018-10-21T03:06:31.351Z,100.00
2018-10-21T03:08:59.496Z,100.00
2018-10-21T03:11:27.497Z,99.88
2018-10-21T03:13:55.537Z,100.00
2018-10-21T03:16:23.418Z,100.00
2018-10-21T03:18:51.334Z,100.00
2018-10-21T03:21:19.353Z,100.00
2018-10-21T03:23:47.369Z,100.00
2018-10-21T03:26:16.185Z,100.00
2018-10-21T03:28:44.131Z,99.35
2018-10-21T03:31:12.175Z,99.55
2018-10-21T03:33:40.280Z,98.84
2018-10-21T03:36:08.193Z,98.56
2018-10-21T03:38:36.134Z,98.49
2018-10-21T03:41:04.670Z,98.31
2018-10-21T03:43:32.719Z,97.67
2018-10-21T03:46:00.844Z,97.75
2018-10-21T03:48:28.756Z,98.13
2018-10-21T03:50:57.769Z,97.90
2018-10-21T03:53:25.767Z,96.87
2018-10-21T03:55:53.722Z,96.89
2018-10-21T03:58:21.702Z,97.57
2018-10-21T04:00:49.635Z,97.78
2018-10-21T04:03:18.457Z,97.70
2018-10-21T04:05:46.434Z,97.73
2018-10-21T04:08:14.651Z,97.55
2018-10-21T04:10:42.556Z,96.90
2018-10-21T04:13:10.466Z,97.64
2018-10-21T04:15:38.575Z,96.60
2018-10-21T04:18:06.591Z,95.94
2018-10-21T04:20:34.610Z,94.95
2018-10-21T04:23:03.256Z,94.39
2018-10-21T04:25:32.355Z,94.00
2018-10-21T04:28:01.471Z,92.96
2018-10-21T04:30:31.263Z,90.93
2018-10-21T04:34:02.572Z,90.10
2018-10-21T04:36:31.791Z,89.82
2018-10-21T04:39:35.678Z,89.61
2018-10-21T04:42:03.668Z,89.44
2018-10-21T04:44:31.583Z,89.55
2018-10-21T04:47:00.693Z,90.35
2018-10-21T04:49:29.186Z,90.23
2018-10-21T04:51:57.722Z,89.56
2018-10-21T04:54:27.518Z,88.54
2018-10-21T04:56:55.692Z,90.28
2018-10-21T04:59:23.760Z,91.44
2018-10-21T05:01:51.976Z,90.90
2018-10-21T05:04:20.223Z,90.33
2018-10-21T05:06:48.228Z,90.56
2018-10-21T05:09:16.223Z,90.49
2018-10-21T05:11:44.160Z,90.01
2018-10-21T05:14:12.090Z,88.58
2018-10-21T05:16:40.200Z,88.57
2018-10-21T05:19:08.258Z,88.01
2018-10-21T05:21:36.580Z,87.74
2018-10-21T05:24:05.124Z,87.73
2018-10-21T05:26:38.274Z,88.27
2018-10-21T05:29:08.410Z,90.36
2018-10-21T05:31:36.580Z,92.26
2018-10-21T05:34:05.049Z,92.57
2018-10-21T05:36:33.171Z,93.09
2018-10-21T05:39:01.130Z,94.07
2018-10-21T05:41:29.052Z,93.93
2018-10-21T05:43:57.161Z,92.78
2018-10-21T05:46:36.956Z,91.52
2018-10-21T05:49:05.143Z,92.99
2018-10-21T05:51:33.930Z,94.10
2018-10-21T05:54:01.904Z,94.50
2018-10-21T05:56:30.467Z,94.18
2018-10-21T05:58:58.764Z,94.53
2018-10-21T06:01:27.193Z,94.54
2018-10-21T06:03:55.441Z,93.75
2018-10-21T06:06:23.751Z,92.70
2018-10-21T06:08:54.913Z,90.63
2018-10-21T06:11:23.127Z,89.02
2018-10-21T06:13:51.022Z,88.48
2018-10-21T06:16:19.024Z,87.75
2018-10-21T06:18:46.990Z,85.86
2018-10-21T06:21:15.033Z,83.48
2018-10-21T06:23:44.944Z,82.59
2018-10-21T06:26:13.543Z,81.21
2018-10-21T06:28:43.846Z,81.79
2018-10-21T06:31:12.518Z,82.61
2018-10-21T06:33:41.425Z,81.66
2018-10-21T06:36:09.452Z,83.20
2018-10-21T06:38:37.496Z,85.84
2018-10-21T06:41:05.919Z,87.84
2018-10-21T06:43:34.234Z,87.86
2018-10-21T06:46:03.015Z,87.38
2018-10-21T06:48:31.117Z,85.62
2018-10-21T06:51:00.186Z,86.94
2018-10-21T06:53:28.304Z,86.28
2018-10-21T06:55:57.337Z,87.42
2018-10-21T06:58:25.302Z,87.60
2018-10-21T07:00:53.276Z,89.60
2018-10-21T07:03:21.219Z,91.39
2018-10-21T07:06:23.783Z,91.77
2018-10-21T07:08:54.321Z,92.87
2018-10-21T07:11:22.917Z,92.65
2018-10-21T07:13:51.404Z,91.44
2018-10-21T07:16:19.684Z,91.20
2018-10-21T07:18:48.676Z,91.52
2018-10-21T07:21:17.010Z,91.24
2018-10-21T07:23:45.299Z,90.61
2018-10-21T07:26:13.461Z,89.81
2018-10-21T07:28:41.614Z,90.41
2018-10-21T07:31:09.993Z,90.35
2018-10-21T07:33:38.005Z,90.65
2018-10-21T07:36:06.788Z,88.87
2018-10-21T07:38:34.794Z,89.05
2018-10-21T07:41:03.431Z,87.91
2018-10-21T07:43:31.826Z,87.00
2018-10-21T07:46:00.315Z,86.53
2018-10-21T07:48:28.446Z,86.20
2018-10-21T07:50:56.812Z,86.13
2018-10-21T07:53:24.907Z,86.22
2018-10-21T07:55:52.933Z,86.25
2018-10-21T07:58:21.520Z,86.83
2018-10-21T08:00:49.713Z,87.28
2018-10-21T08:03:17.648Z,87.53
2018-10-21T08:05:57.920Z,85.90
2018-10-21T08:08:26.991Z,85.63
2018-10-21T08:10:55.230Z,86.30
2018-10-21T08:13:27.454Z,82.54
2018-10-21T08:15:55.557Z,82.77
2018-10-21T08:18:23.600Z,84.87
2018-10-21T08:20:51.636Z,83.58
2018-10-21T08:23:19.990Z,82.39
2018-10-21T08:25:50.006Z,84.75
2018-10-21T08:28:18.148Z,85.15
2018-10-21T08:30:46.110Z,82.49
2018-10-21T08:33:14.014Z,83.66
2018-10-21T08:35:42.090Z,80.93
2018-10-21T08:38:11.058Z,77.84
2018-10-21T08:40:39.164Z,74.92
2018-10-21T08:43:07.231Z,72.88
2018-10-21T08:45:35.395Z,72.71
2018-10-21T08:48:03.468Z,72.12
2018-10-21T08:50:31.354Z,72.73
2018-10-21T08:52:59.279Z,71.15
2018-10-21T08:55:27.407Z,68.42
2018-10-21T08:57:56.068Z,68.02
2018-10-21T09:00:24.208Z,68.21
2018-10-21T09:02:52.111Z,70.87
2018-10-21T09:05:20.202Z,73.40
2018-10-21T09:07:48.321Z,72.69
2018-10-21T09:10:17.164Z,69.17
2018-10-21T09:12:46.185Z,69.09
2018-10-21T09:15:17.522Z,67.17
2018-10-21T09:17:45.514Z,66.06
2018-10-21T09:20:17.631Z,69.20
2018-10-21T09:22:45.587Z,66.22
2018-10-21T09:25:13.905Z,64.36
2018-10-21T09:27:42.824Z,65.12
2018-10-21T09:30:13.252Z,66.69
2018-10-21T09:32:41.333Z,64.22
2018-10-21T09:35:11.588Z,63.79
2018-10-21T09:37:40.300Z,64.29
2018-10-21T09:40:18.573Z,62.51
2018-10-21T09:42:53.688Z,62.98
2018-10-21T09:45:21.653Z,63.27
2018-10-21T09:47:50.018Z,62.10
2018-10-21T09:50:18.210Z,60.59
2018-10-21T09:52:46.200Z,60.26
2018-10-21T09:55:18.840Z,60.87
2018-10-21T09:57:47.474Z,64.88
2018-10-21T10:00:19.954Z,65.97
2018-10-21T10:02:53.986Z,63.35
2018-10-21T10:05:22.349Z,61.04
2018-10-21T10:07:50.445Z,63.87
2018-10-21T10:10:18.500Z,64.54
2018-10-21T10:12:46.475Z,65.92
2018-10-21T10:15:14.508Z,66.12
2018-10-21T10:17:42.524Z,67.22
2018-10-21T10:20:11.001Z,65.10
2018-10-21T10:22:40.157Z,61.73
2018-10-21T10:25:09.240Z,58.68
2018-10-21T10:27:37.178Z,58.73
2018-10-21T10:30:06.137Z,59.64
2018-10-21T10:32:34.749Z,58.22
2018-10-21T10:35:02.697Z,60.10
2018-10-21T10:37:31.112Z,60.77
2018-10-21T10:39:59.301Z,57.66
2018-10-21T10:42:28.223Z,59.71
2018-10-21T10:44:56.294Z,58.40
2018-10-21T10:47:24.602Z,55.96
2018-10-21T10:49:52.652Z,55.56
2018-10-21T10:52:20.694Z,56.53
2018-10-21T10:54:48.670Z,56.72
2018-10-21T10:57:16.639Z,56.21
2018-10-21T10:59:44.620Z,56.51
2018-10-21T11:02:12.554Z,57.11
2018-10-21T11:04:40.639Z,56.25
2018-10-21T11:07:09.853Z,55.74
2018-10-21T11:09:38.343Z,56.24
2018-10-21T11:12:06.278Z,55.17
2018-10-21T11:14:34.271Z,55.09
2018-10-21T11:17:02.389Z,56.98
2018-10-21T11:19:30.291Z,56.22
2018-10-21T11:21:59.039Z,55.56
2018-10-21T11:24:27.099Z,53.75
2018-10-21T11:26:55.173Z,53.92
2018-10-21T11:29:23.135Z,55.04
2018-10-21T11:31:51.014Z,55.23
2018-10-21T11:34:18.999Z,56.19
2018-10-21T11:36:47.505Z,55.40
2018-10-21T11:39:16.269Z,55.67
2018-10-21T11:41:44.222Z,55.80
2018-10-21T11:44:12.284Z,56.51
2018-10-21T11:46:41.335Z,57.45
2018-10-21T11:49:09.320Z,58.72
2018-10-21T11:51:38.312Z,59.45
2018-10-21T11:54:06.398Z,58.71
2018-10-21T11:56:37.258Z,60.45
2018-10-21T11:59:06.634Z,59.41
2018-10-21T12:01:34.657Z,63.58
2018-10-21T12:04:02.794Z,63.62
2018-10-21T12:06:39.666Z,62.18
2018-10-21T12:09:16.311Z,61.60
2018-10-21T12:11:49.348Z,62.06
2018-10-21T12:17:14.630Z,61.36
2018-10-21T12:19:42.691Z,63.34
2018-10-21T12:22:33.630Z,62.79
2018-10-21T12:25:01.610Z,64.71
2018-10-21T12:27:29.559Z,65.60
2018-10-21T12:30:08.040Z,63.57
2018-10-21T12:32:37.899Z,61.63
2018-10-21T12:35:14.188Z,61.57
2018-10-21T12:37:42.250Z,61.76
2018-10-21T12:40:10.555Z,61.29
2018-10-21T12:42:38.803Z,63.55
2018-10-21T12:45:08.631Z,64.25
2018-10-21T12:47:36.681Z,63.26
2018-10-21T12:50:04.902Z,62.09
2018-10-21T12:52:32.946Z,62.57
2018-10-21T12:55:00.960Z,62.12
2018-10-21T12:57:29.927Z,60.29
2018-10-21T12:59:57.999Z,60.73
2018-10-21T13:02:26.526Z,62.54
2018-10-21T13:04:54.704Z,61.66
2018-10-21T13:07:23.006Z,61.61
2018-10-21T13:09:51.253Z,61.20
2018-10-21T13:12:19.226Z,61.14
2018-10-21T13:14:47.068Z,61.17
2018-10-21T13:17:15.168Z,61.03
2018-10-21T13:19:43.243Z,62.97
2018-10-21T13:22:11.711Z,64.14
2018-10-21T13:24:39.731Z,63.52
2018-10-21T13:27:07.727Z,62.30
2018-10-21T13:29:35.653Z,61.12
2018-10-21T13:32:03.627Z,61.13
2018-10-21T13:34:31.634Z,61.50
2018-10-21T13:37:00.102Z,60.87
2018-10-21T13:39:28.487Z,61.08
2018-10-21T13:41:56.476Z,61.30
2018-10-21T13:44:24.498Z,61.79
2018-10-21T13:46:52.706Z,61.79
2018-10-21T13:49:20.602Z,62.66
2018-10-21T13:51:48.766Z,62.03
2018-10-21T13:54:16.870Z,61.82
2018-10-21T13:56:44.940Z,62.54
2018-10-21T13:59:12.983Z,62.23
2018-10-21T14:01:40.958Z,62.31
2018-10-21T14:04:08.927Z,62.61
2018-10-21T14:06:36.915Z,62.55
2018-10-21T14:09:09.156Z,62.54
2018-10-21T14:11:37.254Z,62.56
2018-10-21T14:14:06.088Z,62.27
2018-10-21T14:16:34.353Z,63.26
2018-10-21T14:19:02.862Z,63.38
2018-10-21T14:21:33.599Z,64.08
2018-10-21T14:24:04.931Z,64.13
2018-10-21T14:26:33.074Z,63.51
2018-10-21T14:29:01.155Z,64.29
2018-10-21T14:31:29.107Z,63.98
2018-10-21T14:33:57.149Z,64.04
2018-10-21T14:36:25.318Z,63.56
2018-10-21T14:38:53.254Z,64.69
2018-10-21T14:41:22.994Z,64.49
2018-10-21T14:43:51.364Z,65.40
2018-10-21T14:46:19.273Z,65.20
2018-10-21T14:48:47.900Z,65.66
2018-10-21T14:51:15.991Z,65.82
2018-10-21T14:53:43.978Z,65.64
2018-10-21T14:56:12.203Z,64.74
2018-10-21T14:58:40.669Z,65.44
2018-10-21T15:01:08.623Z,65.59
2018-10-21T15:03:36.835Z,65.53
2018-10-21T15:06:05.338Z,65.20
2018-10-21T15:08:33.482Z,65.32
2018-10-21T15:11:01.863Z,65.31
2018-10-21T15:13:30.862Z,65.72
2018-10-21T15:16:07.132Z,65.48
2018-10-21T15:18:36.131Z,65.68
2018-10-21T15:21:04.787Z,66.28
2018-10-21T15:23:32.842Z,65.56
2018-10-21T15:26:02.257Z,66.38
2018-10-21T15:28:30.261Z,66.73
2018-10-21T15:30:59.440Z,67.17
2018-10-21T15:33:27.402Z,67.93
2018-10-21T15:35:55.610Z,69.96
2018-10-21T15:38:23.820Z,71.24
2018-10-21T15:40:51.983Z,72.03
2018-10-21T15:43:22.988Z,72.34
2018-10-21T15:45:52.049Z,72.46
2018-10-21T15:48:20.144Z,73.15
2018-10-21T15:50:48.129Z,73.88
2018-10-21T15:53:16.717Z,73.05
2018-10-21T15:55:44.859Z,71.88
2018-10-21T15:58:12.897Z,71.97
2018-10-21T16:00:40.922Z,72.05
2018-10-21T16:03:08.866Z,72.23
2018-10-21T16:05:36.798Z,71.72
2018-10-21T16:08:05.271Z,72.07
2018-10-21T16:10:33.305Z,72.79
2018-10-21T16:13:01.249Z,73.96
2018-10-21T16:15:29.254Z,73.24
2018-10-21T16:17:57.194Z,74.50
2018-10-21T16:20:25.147Z,74.77
2018-10-21T16:22:53.073Z,74.64
2018-10-21T16:25:21.209Z,75.77
2018-10-21T16:27:49.257Z,75.12
2018-10-21T16:30:17.211Z,74.38
2018-10-21T16:32:45.504Z,73.89
2018-10-21T16:35:13.730Z,73.91
2018-10-21T16:37:42.390Z,73.89
2018-10-21T16:40:13.197Z,73.64
2018-10-21T16:42:41.316Z,73.52
2018-10-21T16:45:10.300Z,73.61
2018-10-21T16:47:38.623Z,73.66
2018-10-21T16:50:09.261Z,73.99
2018-10-21T16:52:37.180Z,73.06
2018-10-21T16:55:06.319Z,72.48
2018-10-21T16:57:34.307Z,71.59
2018-10-21T17:00:02.301Z,71.59
2018-10-21T17:02:30.137Z,71.31
2018-10-21T17:04:58.067Z,71.64
2018-10-21T17:07:26.036Z,71.13
2018-10-21T17:09:54.222Z,70.49
2018-10-21T17:12:21.931Z,71.61
2018-10-21T17:14:49.882Z,71.26
2018-10-21T17:17:18.031Z,72.19
2018-10-21T17:19:46.013Z,71.39
2018-10-21T17:22:14.314Z,70.51
2018-10-21T17:24:42.714Z,70.60
2018-10-21T17:27:10.704Z,70.53
2018-10-21T17:29:38.865Z,70.31
2018-10-21T17:32:06.918Z,70.49
2018-10-21T17:34:35.752Z,70.30
2018-10-21T17:37:03.690Z,70.64
2018-10-21T17:39:31.958Z,70.48
2018-10-21T17:41:59.896Z,70.59
2018-10-21T17:44:28.466Z,70.67
2018-10-21T17:46:57.032Z,70.45
2018-10-21T17:49:25.175Z,71.09
2018-10-21T17:51:53.139Z,71.14
2018-10-21T17:54:21.030Z,70.81
2018-10-21T17:56:54.430Z,70.61
2018-10-21T17:59:22.589Z,69.76
2018-10-21T18:01:50.673Z,70.10
2018-10-21T18:04:18.970Z,70.62
2018-10-21T18:06:47.044Z,71.37
2018-10-21T18:09:14.872Z,71.19
2018-10-21T18:11:42.772Z,70.89
2018-10-21T18:14:11.776Z,71.04
2018-10-21T18:16:43.267Z,71.28
2018-10-21T18:19:11.840Z,71.38
2018-10-21T18:21:40.642Z,70.91
2018-10-21T18:24:09.175Z,70.92
2018-10-21T18:26:37.105Z,70.41
2018-10-21T18:29:05.626Z,70.96
2018-10-21T18:31:33.667Z,70.95
2018-10-21T18:34:01.835Z,70.79
2018-10-21T18:36:31.111Z,69.47
2018-10-21T18:38:59.713Z,69.90
2018-10-21T18:41:27.762Z,70.38
2018-10-21T18:43:55.714Z,70.75
2018-10-21T18:46:24.212Z,71.20
2018-10-21T18:48:52.863Z,70.83
2018-10-21T18:51:20.949Z,71.29
2018-10-21T18:53:49.009Z,71.37
2018-10-21T18:56:17.010Z,72.01
2018-10-21T18:58:45.159Z,71.24
2018-10-21T19:01:15.034Z,70.44
2018-10-21T19:03:43.355Z,70.98
2018-10-21T19:06:14.111Z,71.36
2018-10-21T19:08:42.733Z,70.98
2018-10-21T19:11:10.924Z,72.02
2018-10-21T19:13:38.903Z,72.54
2018-10-21T19:16:07.192Z,71.44
2018-10-21T19:18:35.175Z,70.90
2018-10-21T19:21:03.522Z,70.68
2018-10-21T19:23:31.589Z,70.72
2018-10-21T19:25:59.950Z,71.12
2018-10-21T19:28:28.022Z,70.78
2018-10-21T19:30:56.021Z,70.72
2018-10-21T19:33:25.242Z,70.29
2018-10-21T19:35:53.400Z,71.94
2018-10-21T19:38:21.399Z,72.12
2018-10-21T19:40:49.391Z,72.83
2018-10-21T19:43:17.457Z,71.66
2018-10-21T19:45:45.240Z,72.09
2018-10-21T19:48:13.169Z,71.58
2018-10-21T19:50:41.231Z,71.99
2018-10-21T19:53:09.171Z,71.47
2018-10-21T19:55:37.425Z,71.52
2018-10-21T19:58:05.731Z,72.70
2018-10-21T20:00:33.910Z,72.57
2018-10-21T20:03:01.991Z,74.03
2018-10-21T20:05:29.960Z,75.50
2018-10-21T20:07:57.929Z,75.91
2018-10-21T20:10:25.862Z,76.07
2018-10-21T20:12:54.367Z,75.91
2018-10-21T20:15:22.697Z,75.63
2018-10-21T20:17:50.621Z,75.58
2018-10-21T20:20:18.610Z,75.69
2018-10-21T20:22:46.584Z,76.67
2018-10-21T20:25:14.673Z,77.54
2018-10-21T20:27:43.357Z,78.74
2018-10-21T20:30:12.712Z,79.51
2018-10-21T20:32:40.816Z,79.79
2018-10-21T20:35:09.891Z,80.54
2018-10-21T20:37:37.925Z,79.97
2018-10-21T20:40:07.556Z,79.25
2018-10-21T20:42:35.478Z,79.96
2018-10-21T20:45:03.638Z,80.35
2018-10-21T20:47:31.822Z,80.87
2018-10-21T20:49:59.900Z,79.76
2018-10-21T20:52:27.808Z,80.78
2018-10-21T20:54:55.827Z,81.06
2018-10-21T20:57:26.116Z,82.89
2018-10-21T20:59:54.765Z,84.09
2018-10-21T21:02:23.318Z,84.14
2018-10-21T21:04:51.290Z,85.14
2018-10-21T21:07:19.566Z,86.73
2018-10-21T21:09:47.478Z,87.28
2018-10-21T21:12:15.546Z,87.72
2018-10-21T21:14:44.450Z,88.96
2018-10-21T21:17:12.513Z,88.83
2018-10-21T21:19:40.521Z,88.44
2018-10-21T21:22:08.581Z,87.94
2018-10-21T21:24:36.745Z,88.55
2018-10-21T21:27:04.896Z,89.08
2018-10-21T21:29:32.825Z,88.93
2018-10-21T21:32:00.752Z,88.80
2018-10-21T21:34:28.750Z,87.28
2018-10-21T21:36:56.632Z,86.32
2018-10-21T21:39:24.595Z,86.19
2018-10-21T21:41:53.102Z,85.73
2018-10-21T21:44:22.216Z,86.25
2018-10-21T21:46:51.169Z,87.63
2018-10-21T21:49:19.103Z,88.79
2018-10-21T21:51:47.102Z,88.98
2018-10-21T21:54:15.192Z,88.34
2018-10-21T21:56:44.958Z,88.12
2018-10-21T21:59:12.988Z,88.34
2018-10-21T22:01:40.928Z,87.60
2018-10-21T22:04:08.880Z,87.04
2018-10-21T22:06:37.078Z,87.96
2018-10-21T22:09:08.099Z,89.18
2018-10-21T22:11:36.220Z,89.79
2018-10-21T22:14:04.521Z,89.74
2018-10-21T22:16:32.450Z,89.85
2018-10-21T22:19:00.476Z,90.66
2018-10-21T22:21:28.452Z,90.19
2018-10-21T22:23:56.675Z,89.04
2018-10-21T22:26:24.551Z,88.00
2018-10-21T22:28:52.646Z,88.58
2018-10-21T22:31:20.666Z,87.96
2018-10-21T22:33:48.670Z,88.58
2018-10-21T22:36:16.794Z,89.29
2018-10-21T22:38:44.750Z,90.27
2018-10-21T22:41:12.791Z,90.58
2018-10-21T22:43:40.808Z,91.17
2018-10-21T22:46:08.871Z,89.77
2018-10-21T22:48:36.985Z,89.67
2018-10-21T22:51:05.444Z,89.54
2018-10-21T22:53:33.447Z,89.65
2018-10-21T22:56:01.763Z,90.25
2018-10-21T22:58:29.614Z,90.24
2018-10-21T23:00:58.784Z,91.40
2018-10-21T23:03:26.722Z,90.85
2018-10-21T23:05:54.774Z,90.12
2018-10-21T23:08:22.838Z,89.60
2018-10-21T23:10:50.822Z,90.37
2018-10-21T23:13:18.830Z,90.85
2018-10-21T23:15:46.839Z,90.81
2018-10-21T23:18:14.802Z,91.32
2018-10-21T23:20:42.803Z,91.61
2018-10-21T23:23:11.023Z,91.88
2018-10-21T23:25:39.125Z,91.78
2018-10-21T23:28:07.234Z,91.75
2018-10-21T23:30:35.287Z,91.38
2018-10-21T23:33:03.190Z,91.90
2018-10-21T23:35:31.161Z,91.36
2018-10-21T23:37:59.064Z,90.95
2018-10-21T23:40:26.980Z,90.95
2018-10-21T23:42:54.908Z,90.97
2018-10-21T23:45:22.899Z,91.04
2018-10-21T23:47:50.812Z,90.70
2018-10-21T23:50:18.712Z,90.71
2018-10-21T23:52:46.643Z,90.58
2018-10-21T23:55:14.556Z,90.47
2018-10-21T23:57:43.016Z,90.62
